Impacts METAR Board
IDs:

KHUM - Houma/Terrebonne Arp, LA, US

Updated at: 0600 UTC 24 Jan 2019
Potential Impact None Slight Moderate High
Time 23/18Z 23/19Z 23/20Z 23/21Z 23/22Z 23/23Z 24/00Z 24/01Z 24/02Z 24/03Z 24/04Z 24/05Z 24/06Z
Temp57 55 55 55 55 54 54 48 43 43 40 39 37
Dewpt55 54 54 54 54 54 52 47 43 40 36 33 31
Altim29.87 29.89 29.89 29.89 29.88 29.91 29.91 29.96 29.96 30.02 30.04 30.06 30.05
VIS4 5 7 7 7 7 7 7 7 7 7 7 7
CIG6 5 38 44 60 15 9 5 5 7 13 16 --
CoverBKNOVCOVCOVCOVCBKNOVCOVCOVCOVCOVCOVCSCT
FltCatIFRIFRVFRVFRVFRMVFRIFRIFRIFRIFRMVFRMVFRVFR
WX+RA-RA----------------------
WDir320340340330340280290300320330320320330
WSpd23 12 12 9 5 4 5 13 14 15 13 13 16
WGst27 -- 18 -- -- -- -- 19 20 19 17 25 22
Raw hourly METARs
KHUM 231747Z 32023G27KT 4SM +RA BKN006 BKN015 14/13 A2987
KHUM 231905Z 34012KT 5SM -RA OVC005 13/12 A2989
KHUM 231947Z 34012G18KT 7SM SCT010 OVC038 13/12 A2989
KHUM 232047Z 33009KT 7SM SCT007 OVC044 13/12 A2989
KHUM 232147Z 34005KT 7SM FEW007 OVC060 13/12 A2988
KHUM 232250Z 28004KT 7SM SCT009 BKN015 12/12 A2991
KHUM 232350Z 29005KT 7SM OVC009 12/11 A2991
KHUM 240055Z AUTO 30013G19KT 7SM OVC005 09/09 A2996 RMK AO2 LTG DSNT SE P0001 T00900086
KHUM 240155Z AUTO 32014G20KT 7SM OVC005 06/06 A2996 RMK AO2 T00620060
KHUM 240255Z AUTO 33015G19KT 7SM OVC007 06/05 A3002 RMK AO2 LTG DSNT SE 60001 T00600047
KHUM 240355Z AUTO 32013G17KT 7SM OVC013 04/02 A3004 RMK AO2 T00420021
KHUM 240455Z AUTO 32013G25KT 7SM OVC016 04/01 A3006 RMK AO2 T00400008
KHUM 240555Z AUTO 33016G22KT 7SM SCT024 03/00 A3005 RMK AO2 60001 T00301004 10116 20030 402040030



Page loaded:  06:56 UTC  |   10:56 PM Pacific  |   11:56 PM Mountain  |   12:56 AM Central  |   01:56 AM Eastern

 

ADVISORIES

FORECASTS

FORECASTS

OBSERVATIONS

USER TOOLS

ABOUT US